^^
Datos históricos de la estación: Murcia-Puente Tocinos
Diario Informe para Septiembre 18, 2020 Unidades:  Métrico    Ingés   Ambas
Diario Semanal Mensual Anual
  Máxima: Mínima: Promedio:
Temperatura: 24.1 °C 19.4 °C 21.9 °C
Punto de rocio: 21.8 °C 15.9 °C 18.9 °C
Humedad: 91.7% 63.2% 84%
Velocidad viento: 14.8km/h 0km/h 6.4km/h
Racha viento: 31.5km/h - -
Viento- - Sur
Presión: 1017.8 hPa 1013.2 hPa -
Precipitación: 6.9 mm    
 
 
Tabla de datos para Septiembre 18, 2020
Hora Temperatura Punto de rocio Presión Viento Velocidad viento Racha viento Humedad Intensidad lluvia(por hora) Nubes
00:04 23.8 °C 21.5 °C 1013.8 hPa NO 2.8 km/h 5.8 km/h 87% 0.0 mm
00:09 23.8 °C 21.5 °C 1013.8 hPa NO 2.2 km/h 6.4 km/h 87% 0.0 mm
00:14 23.9 °C 21.6 °C 1013.7 hPa NO 2.2 km/h 5.8 km/h 87% 0.0 mm
00:19 23.9 °C 21.6 °C 1013.7 hPa North 2.2 km/h 6.4 km/h 87% 0.0 mm
00:24 23.9 °C 21.6 °C 1013.8 hPa NE 2.4 km/h 6.4 km/h 87% 0.0 mm
00:29 24 °C 21.7 °C 1013.8 hPa NE 2.9 km/h 5.8 km/h 87% 0.0 mm
00:34 24.1 °C 21.8 °C 1013.8 hPa NNE 3.1 km/h 7.4 km/h 87% 0.0 mm
00:39 24.1 °C 21.8 °C 1013.8 hPa NE 3.9 km/h 8 km/h 87% 0.0 mm
00:44 24.1 °C 21.8 °C 1013.6 hPa NNE 3.7 km/h 6.4 km/h 87% 0.0 mm
00:49 24 °C 21.6 °C 1013.6 hPa NNE 3.2 km/h 5.6 km/h 86.3% 0.0 mm
00:54 23.9 °C 21.6 °C 1013.6 hPa NNE 3.2 km/h 5.8 km/h 86.8% 0.0 mm
00:59 23.9 °C 21.6 °C 1013.5 hPa NNE 3.2 km/h 6.9 km/h 86.9% 0.0 mm
01:04 23.8 °C 21.4 °C 1013.5 hPa NO 3.4 km/h 8 km/h 86% 0.0 mm
01:09 23.7 °C 21.3 °C 1013.5 hPa NO 3.9 km/h 8 km/h 86% 0.0 mm
01:14 23.6 °C 21.3 °C 1013.2 hPa Oeste 3.7 km/h 8 km/h 86.7% 0.0 mm
01:19 23.5 °C 21.3 °C 1013.2 hPa Oeste 3.2 km/h 9.3 km/h 87% 0.0 mm
01:24 23.4 °C 21.3 °C 1013.7 hPa Oeste 3.5 km/h 9.7 km/h 87.8% 0.0 mm
01:29 23.4 °C 21.3 °C 1013.7 hPa Oeste 4.7 km/h 8 km/h 88% 0.0 mm
01:34 23.4 °C 21.3 °C 1013.7 hPa Oeste 4.5 km/h 8 km/h 88% 0.0 mm
01:39 23.4 °C 21.3 °C 1013.7 hPa Oeste 3.9 km/h 7.4 km/h 88.3% 0.0 mm
01:44 23.4 °C 21.5 °C 1013.7 hPa ONO 3.7 km/h 5.6 km/h 89% 0.0 mm
01:49 23.4 °C 21.5 °C 1013.7 hPa ONO 3.2 km/h 6.4 km/h 89% 0.0 mm
01:54 23.4 °C 21.5 °C 1013.8 hPa Oeste 3.2 km/h 8 km/h 89% 0.0 mm
01:59 23.5 °C 21.6 °C 1013.8 hPa OSO 2.9 km/h 8 km/h 89% 0.0 mm
02:04 23.6 °C 21.6 °C 1013.8 hPa OSO 3.3 km/h 8 km/h 89% 0.0 mm
02:09 23.6 °C 21.7 °C 1013.8 hPa Oeste 4.7 km/h 7.6 km/h 89% 0.0 mm
02:14 23.7 °C 21.6 °C 1013.8 hPa Oeste 4.4 km/h 8 km/h 88.1% 0.0 mm
02:19 23.7 °C 21.6 °C 1013.8 hPa ONO 3.2 km/h 8 km/h 88% 0.0 mm
02:24 23.7 °C 21.6 °C 1013.8 hPa NO 3.3 km/h 8 km/h 88% 0.0 mm
02:29 23.7 °C 21.6 °C 1013.7 hPa NO 3.9 km/h 6.4 km/h 88% 0.0 mm
02:34 23.7 °C 21.6 °C 1013.7 hPa ONO 3.5 km/h 4.7 km/h 88% 0.0 mm
02:39 23.7 °C 21.6 °C 1013.7 hPa ONO 2.2 km/h 4.8 km/h 88% 0.0 mm
02:44 23.7 °C 21.6 °C 1013.7 hPa OSO 1.8 km/h 4.8 km/h 88% 0.0 mm
02:49 23.7 °C 21.6 °C 1013.7 hPa Calm   3.9 km/h 88% 0.0 mm
02:54 23.7 °C 21.5 °C 1013.7 hPa SO 0.5 km/h 5.6 km/h 87.3% 0.0 mm
02:59 23.7 °C 21.4 °C 1013.6 hPa SE 2.2 km/h 7.4 km/h 87% 0.0 mm
03:04 23.6 °C 21.1 °C 1013.6 hPa ESE 2.6 km/h 8 km/h 86.1% 0.0 mm
03:09 23.6 °C 21.1 °C 1013.6 hPa SE 3.9 km/h 10 km/h 85.9% 0.0 mm
03:14 23.6 °C 20.9 °C 1013.5 hPa SSE 4.4 km/h 11.9 km/h 85% 0.0 mm
03:19 23.5 °C 20.9 °C 1013.5 hPa Sur 6.4 km/h 11.3 km/h 85.3% 0.0 mm
03:24 23.6 °C 21.1 °C 1013.7 hPa SSE 6.6 km/h 10.3 km/h 86% 0.0 mm
03:29 23.6 °C 21.1 °C 1013.7 hPa SSE 6.9 km/h 11.1 km/h 86% 0.0 mm
03:34 23.6 °C 21.1 °C 1013.7 hPa Sur 7.1 km/h 11.3 km/h 86% 0.0 mm
03:39 23.7 °C 21.3 °C 1013.8 hPa SSO 7.6 km/h 11.3 km/h 86.7% 0.0 mm
03:44 23.7 °C 21.4 °C 1013.8 hPa SSO 7.4 km/h 11.1 km/h 87% 0.0 mm
03:49 23.8 °C 21.5 °C 1013.8 hPa SSO 6.9 km/h 11.3 km/h 87% 0.0 mm
03:54 23.8 °C 21.5 °C 1014.1 hPa SSO 7.1 km/h 14.8 km/h 87% 0.0 mm
03:59 23.8 °C 21.5 °C 1014.1 hPa SSO 7.6 km/h 15.6 km/h 87% 0.0 mm
04:04 23.7 °C 21.3 °C 1014.1 hPa SO 7.8 km/h 16.1 km/h 86.4% 0.0 mm
04:09 23.7 °C 21.3 °C 1014.1 hPa SO 8.7 km/h 17.2 km/h 86.6% 0.0 mm
04:14 23.7 °C 21.4 °C 1013.9 hPa SO 8.9 km/h 18.3 km/h 87% 0.0 mm
04:19 23.7 °C 21.4 °C 1013.9 hPa OSO 10 km/h 20.9 km/h 87% 0.0 mm
04:24 23.7 °C 21.5 °C 1014.4 hPa OSO 10.2 km/h 20.9 km/h 87.6% 0.0 mm
04:29 23.6 °C 21.5 °C 1014.4 hPa OSO 11.1 km/h 20.9 km/h 88% 0.0 mm
04:34 23.6 °C 21.5 °C 1014.4 hPa Oeste 10.8 km/h 20.9 km/h 88% 0.0 mm
04:39 23.5 °C 21.4 °C 1014.4 hPa Oeste 10 km/h 19 km/h 87.8% 0.0 mm
04:44 23.4 °C 20.7 °C 1014.0 hPa Oeste 10.2 km/h 24.5 km/h 84.8% 0.0 mm
04:49 23.4 °C 19.4 °C 1014.0 hPa Oeste 11.1 km/h 29.6 km/h 78% 0.0 mm
04:54 23.7 °C 18 °C 1014.1 hPa OSO 11.7 km/h 29.6 km/h 70.7% 0.0 mm
04:59 23.8 °C 17.3 °C 1014.1 hPa OSO 14.8 km/h 25.9 km/h 67.2% 0.0 mm
05:04 23.8 °C 17.1 °C 1014.1 hPa Oeste 13.9 km/h 16.7 km/h 66.1% 0.0 mm
05:09 23.8 °C 16.9 °C 1014.2 hPa Oeste 10.3 km/h 16.1 km/h 65.2% 0.0 mm
05:14 23.8 °C 16.7 °C 1014.2 hPa Oeste 9.6 km/h 14.8 km/h 64.5% 0.0 mm
05:19 23.9 °C 16.5 °C 1014.2 hPa Oeste 6.9 km/h 16.7 km/h 63.4% 0.0 mm
05:24 23.9 °C 16.6 °C 1014.2 hPa Oeste 7.1 km/h 16.1 km/h 63.8% 0.0 mm
05:29 23.9 °C 16.6 °C 1014.2 hPa Oeste 7.6 km/h 13 km/h 63.8% 0.0 mm
05:34 23.8 °C 16.4 °C 1014.2 hPa Oeste 7.4 km/h 16.7 km/h 63.2% 0.0 mm
05:39 23.8 °C 16.5 °C 1014.3 hPa Oeste 6.9 km/h 16.1 km/h 64% 0.0 mm
05:44 23.7 °C 16.5 °C 1014.3 hPa Oeste 7.1 km/h 13 km/h 64% 0.0 mm
05:49 23.6 °C 16.4 °C 1014.3 hPa Oeste 7.6 km/h 22.5 km/h 63.9% 0.0 mm
05:54 23.6 °C 16.4 °C 1014.4 hPa Oeste 8 km/h 22.5 km/h 64.2% 0.0 mm
05:59 23.4 °C 16.5 °C 1014.4 hPa Oeste 9.5 km/h 17.2 km/h 64.9% 0.0 mm
06:04 23.3 °C 16.5 °C 1014.4 hPa ONO 9.5 km/h 18.3 km/h 65.6% 0.0 mm
06:09 23.2 °C 16.9 °C 1014.4 hPa NO 9.5 km/h 19.3 km/h 68% 0.3 mm
06:14 22.8 °C 17.1 °C 1014.2 hPa ONO 9.3 km/h 16.7 km/h 70.1% 0.3 mm
06:19 22.4 °C 16.6 °C 1014.2 hPa Oeste 8.7 km/h 20.9 km/h 69.7% 0.5 mm
06:24 22.3 °C 16.1 °C 1014.5 hPa Oeste 9.4 km/h 27.8 km/h 68.1% 0.5 mm
06:29 22.3 °C 15.9 °C 1014.5 hPa Oeste 12.2 km/h 27.4 km/h 67.2% 0.5 mm
06:34 22.3 °C 16 °C 1014.5 hPa ONO 11.7 km/h 19.3 km/h 67.4% 0.5 mm
06:39 22.3 °C 16.1 °C 1014.5 hPa ONO 9.5 km/h 14.5 km/h 68% 0.5 mm
06:44 22.3 °C 16.3 °C 1014.4 hPa NO 8.8 km/h 11.3 km/h 68.7% 0.5 mm
06:49 22.3 °C 16.3 °C 1014.4 hPa North 6.5 km/h 11.3 km/h 69% 0.5 mm
06:54 22.2 °C 16.4 °C 1014.4 hPa NNO 5.9 km/h 11.1 km/h 69.9% 0.5 mm
06:59 22.2 °C 16.2 °C 1014.2 hPa ONO 3.9 km/h 11.9 km/h 68.9% 0.5 mm
07:04 22.2 °C 16.2 °C 1014.2 hPa ONO 4.5 km/h 11.3 km/h 68.8% 0.5 mm
07:09 22.3 °C 16.2 °C 1014.3 hPa ONO 6.9 km/h 18.5 km/h 68.6% 0.5 mm
07:14 22.3 °C 16.1 °C 1014.3 hPa Oeste 7.2 km/h 19.3 km/h 67.9% 0.2 mm
07:19 22.2 °C 16.1 °C 1014.3 hPa ONO 8.4 km/h 27.8 km/h 68.4% 0.3 mm
07:24 21.8 °C 16.1 °C 1014.3 hPa ONO 9.4 km/h 27.4 km/h 70.1% 0.5 mm
07:29 21.4 °C 16.2 °C 1014.3 hPa Oeste 13.7 km/h 24.1 km/h 72.3% 0.5 mm
07:34 21.1 °C 16.4 °C 1014.3 hPa OSO 13.1 km/h 22.5 km/h 74.7% 0.8 mm
07:39 20.8 °C 16.5 °C 1015.1 hPa OSO 11.1 km/h 22.5 km/h 76.5% 1.0 mm
07:44 20.6 °C 16.7 °C 1015.1 hPa OSO 11 km/h 20.9 km/h 78.5% 1.5 mm
07:49 20.3 °C 16.8 °C 1015.1 hPa Oeste 10.3 km/h 14.5 km/h 80.2% 2.3 mm
07:54 20.2 °C 17 °C 1015.1 hPa ONO 9.2 km/h 9.7 km/h 82% 2.6 mm
07:59 20 °C 17 °C 1014.8 hPa NO 5 km/h 9.7 km/h 83.3% 2.8 mm
08:04 19.8 °C 17.1 °C 1014.8 hPa NNE 5.1 km/h 15.6 km/h 84.4% 2.8 mm
08:09 19.6 °C 17.2 °C 1014.8 hPa ENE 5.8 km/h 16.7 km/h 85.9% 2.8 mm
08:14 19.7 °C 17.4 °C 1013.8 hPa NNE 6 km/h 13 km/h 87% 2.8 mm
08:19 19.7 °C 17.5 °C 1013.8 hPa Este 6.9 km/h 11.1 km/h 87.6% 2.8 mm
08:24 19.6 °C 17.6 °C 1014.3 hPa ESE 6.7 km/h 11.3 km/h 88% 2.5 mm
08:29 19.6 °C 17.5 °C 1014.3 hPa ENE 5.8 km/h 11.3 km/h 88% 2.3 mm
08:34 19.5 °C 17.4 °C 1014.3 hPa NE 5.6 km/h 11.9 km/h 88% 2.3 mm
08:39 19.5 °C 17.4 °C 1014.3 hPa NE 5 km/h 11.3 km/h 88% 2.0 mm
08:44 19.4 °C 17.3 °C 1014.0 hPa NNE 5.7 km/h 16.1 km/h 88% 1.5 mm
08:49 19.4 °C 17.4 °C 1014.0 hPa NNE 8.4 km/h 16.7 km/h 88.4% 1.3 mm
08:54 19.5 °C 17.6 °C 1014.6 hPa NNE 7.5 km/h 9.7 km/h 89% 0.2 mm
08:59 19.4 °C 17.4 °C 1014.6 hPa NNE 4.7 km/h 10.3 km/h 88.4% 0.2 mm
09:04 19.4 °C 17.5 °C 1014.6 hPa NO 5 km/h 11.9 km/h 88.5% 0.0 mm
09:09 19.5 °C 17.6 °C 1014.8 hPa ONO 6.4 km/h 11.9 km/h 89% 0.0 mm
09:14 19.5 °C 17.6 °C 1014.8 hPa NO 6.5 km/h 11.3 km/h 89% 0.0 mm
09:19 19.6 °C 17.7 °C 1014.8 hPa ONO 6.5 km/h 11.1 km/h 89% 0.0 mm
09:24 19.6 °C 17.7 °C 1015.0 hPa ONO 6.5 km/h 13 km/h 89% 0.0 mm
09:29 19.7 °C 17.8 °C 1015.0 hPa North 6.5 km/h 12.9 km/h 89% 0.0 mm
09:34 19.6 °C 17.8 °C 1015.0 hPa NNE 6.6 km/h 13 km/h 89% 0.0 mm
09:39 19.6 °C 17.7 °C 1015.0 hPa NNE 6.9 km/h 12.9 km/h 89% 0.0 mm
09:44 19.7 °C 17.8 °C 1014.5 hPa North 6.9 km/h 11.3 km/h 89% 0.0 mm
09:49 19.6 °C 17.6 °C 1014.5 hPa North 6.9 km/h 11.3 km/h 88.4% 0.0 mm
09:54 19.6 °C 17.7 °C 1014.8 hPa NNE 7.1 km/h 14.8 km/h 88.5% 0.0 mm
09:59 19.7 °C 17.6 °C 1014.8 hPa NNE 7.6 km/h 14.8 km/h 88% 0.0 mm
10:04 19.7 °C 17.7 °C 1014.8 hPa NE 7.7 km/h 14.5 km/h 88% 0.0 mm
10:09 19.7 °C 17.7 °C 1015.4 hPa NE 8.4 km/h 11.3 km/h 88% 0.0 mm
10:14 19.8 °C 17.8 °C 1015.4 hPa NE 7.6 km/h 8.4 km/h 88% 0.0 mm
10:19 19.8 °C 17.8 °C 1015.4 hPa NNE 4.7 km/h 11.1 km/h 88% 0.0 mm
10:24 19.9 °C 17.8 °C 1015.4 hPa NE 4.9 km/h 11.3 km/h 88% 0.0 mm
10:29 20 °C 17.9 °C 1015.4 hPa ENE 5.8 km/h 9.7 km/h 88% 0.0 mm
10:34 20.1 °C 18.1 °C 1015.4 hPa ESE 5.6 km/h 9.7 km/h 88% 0.0 mm
10:39 20.2 °C 18.2 °C 1015.7 hPa ESE 4.7 km/h 9.7 km/h 88% 0.0 mm
10:44 20.3 °C 18.2 °C 1015.7 hPa ESE 4.2 km/h 8 km/h 88% 0.0 mm
10:49 20.4 °C 18.2 °C 1015.7 hPa NO 2.2 km/h 8 km/h 87.4% 0.0 mm
10:54 20.3 °C 18.1 °C 1015.8 hPa ENE 2.6 km/h 8.4 km/h 87% 0.0 mm
10:59 20.4 °C 18.2 °C 1015.8 hPa NE 5 km/h 11.9 km/h 87% 0.0 mm
11:04 20.4 °C 18.2 °C 1015.8 hPa NE 5.3 km/h 11.3 km/h 87% 0.0 mm
11:09 20.4 °C 18.1 °C 1015.8 hPa NNE 6.4 km/h 11.9 km/h 86.9% 0.0 mm
11:14 20.4 °C 18.2 °C 1015.6 hPa North 6.5 km/h 11.3 km/h 87.1% 0.0 mm
11:19 20.5 °C 18.5 °C 1015.6 hPa North 6.5 km/h 8.7 km/h 88% 0.0 mm
11:24 20.6 °C 18.6 °C 1015.9 hPa NNE 6.1 km/h 10.3 km/h 88% 0.0 mm
11:29 20.6 °C 18.6 °C 1015.9 hPa NNE 4.7 km/h 11.3 km/h 88% 0.0 mm
11:34 20.5 °C 18.4 °C 1015.9 hPa North 5 km/h 11.3 km/h 88% 0.0 mm
11:39 20.6 °C 18.5 °C 1016.0 hPa North 6.4 km/h 7.4 km/h 88% 0.0 mm
11:44 20.6 °C 18.6 °C 1016.0 hPa NNE 6.1 km/h 11.1 km/h 88% 0.0 mm
11:49 20.7 °C 18.6 °C 1016.0 hPa NNE 4.7 km/h 11.3 km/h 88% 0.0 mm
11:54 20.7 °C 18.7 °C 1016.2 hPa NNO 4.7 km/h 11.3 km/h 88% 0.0 mm
11:59 20.7 °C 18.7 °C 1016.2 hPa NO 5 km/h 9.7 km/h 88% 0.0 mm
12:04 20.8 °C 18.7 °C 1016.2 hPa NO 4.7 km/h 9.3 km/h 88% 0.0 mm
12:09 20.8 °C 18.7 °C 1016.5 hPa NO 3.9 km/h 9.7 km/h 88% 0.3 mm
12:14 20.8 °C 18.7 °C 1016.5 hPa NO 4 km/h 8 km/h 88% 0.3 mm
12:19 20.9 °C 18.8 °C 1016.5 hPa NO 4.7 km/h 8 km/h 88% 0.3 mm
12:24 20.9 °C 18.8 °C 1016.5 hPa ONO 4.4 km/h 8 km/h 88% 0.3 mm
12:29 20.9 °C 18.8 °C 1016.3 hPa North 3.2 km/h 8 km/h 88% 0.3 mm
12:34 20.9 °C 18.8 °C 1016.3 hPa NE 3.3 km/h 8 km/h 88% 0.3 mm
12:39 20.9 °C 18.8 °C 1016.3 hPa NNE 3.9 km/h 8.4 km/h 87.9% 0.3 mm
12:44 20.9 °C 18.7 °C 1016.1 hPa North 3.9 km/h 8 km/h 87.4% 0.3 mm
12:49 20.8 °C 18.7 °C 1016.1 hPa NNE 3.9 km/h 10 km/h 87.2% 0.3 mm
12:54 20.8 °C 18.5 °C 1016.1 hPa NE 4.4 km/h 11.1 km/h 86.9% 0.3 mm
12:59 20.8 °C 18.5 °C 1015.8 hPa NE 6.4 km/h 11.3 km/h 86.8% 0.5 mm
13:04 20.9 °C 18.7 °C 1015.8 hPa Este 6.5 km/h 11.3 km/h 87% 0.5 mm
13:09 20.9 °C 18.7 °C 1015.9 hPa Este 6.5 km/h 11.3 km/h 87% 0.5 mm
13:14 20.9 °C 18.7 °C 1015.9 hPa SE 6.5 km/h 11.3 km/h 87% 0.2 mm
13:19 20.8 °C 18.6 °C 1015.9 hPa SE 6.5 km/h 13 km/h 87% 0.2 mm
13:24 20.9 °C 18.8 °C 1016.6 hPa SSE 6.5 km/h 12.9 km/h 87.9% 0.2 mm
13:29 20.9 °C 18.9 °C 1016.6 hPa SO 6.9 km/h 16.1 km/h 88.2% 0.2 mm
13:34 21 °C 19.1 °C 1016.6 hPa OSO 7.3 km/h 16.7 km/h 89% 0.5 mm
13:39 20.9 °C 19 °C 1017.8 hPa SO 8.7 km/h 16.1 km/h 89% 1.3 mm
13:44 20.9 °C 19 °C 1017.8 hPa Sur 8 km/h 7.6 km/h 89% 1.8 mm
13:49 20.9 °C 19.1 °C 1017.8 hPa ENE 5 km/h 12.2 km/h 89.3% 2.0 mm
13:54 20.8 °C 19.1 °C 1017.8 hPa ENE 5.2 km/h 15.6 km/h 89.6% 2.0 mm
13:59 20.8 °C 19.2 °C 1016.1 hPa ENE 5.8 km/h 16.1 km/h 90.2% 2.1 mm
14:04 20.8 °C 19.3 °C 1016.1 hPa Este 6.6 km/h 14.8 km/h 91% 2.1 mm
14:09 20.8 °C 19.3 °C 1016.1 hPa Este 9.5 km/h 16.7 km/h 91.1% 2.3 mm
14:14 20.7 °C 19.3 °C 1015.7 hPa Este 9.6 km/h 16.7 km/h 91.7% 2.6 mm
14:19 20.6 °C 19.2 °C 1015.7 hPa Este 10 km/h 24.1 km/h 91.6% 2.6 mm
14:24 20.5 °C 19 °C 1015.7 hPa ENE 10.4 km/h 24.1 km/h 91% 2.6 mm
14:29 20.5 °C 18.8 °C 1015.0 hPa ENE 11.9 km/h 20.4 km/h 90.4% 2.9 mm
14:34 20.4 °C 18.5 °C 1015.0 hPa Este 11.9 km/h 31.5 km/h 88.9% 2.9 mm
Murcia-Puente Tocinos, España
Compliments of Weather Underground - 2.75 mb

La estación de MeteoMurcia.com, publica sus datos en los siguientes proyectos:

Weather Underground PWS IMURCIAP2 Meteoclimatic www.awekas.at

W3Counter
Web Analytics